createdAt,value
2017-01-05T00:00:20.800Z,93.47
2017-01-05T00:01:01.370Z,93.56
2017-01-05T00:01:42.326Z,93.47
2017-01-05T00:02:22.914Z,93.42
2017-01-05T00:03:03.615Z,93.56
2017-01-05T00:03:44.181Z,94.22
2017-01-05T00:04:24.835Z,93.99
2017-01-05T00:05:05.479Z,94.03
2017-01-05T00:05:46.058Z,94.18
2017-01-05T00:06:26.689Z,94.18
2017-01-05T00:07:07.447Z,93.99
2017-01-05T00:07:48.018Z,94.22
2017-01-05T00:08:28.645Z,94.18
2017-01-05T00:09:09.376Z,93.89
2017-01-05T00:09:49.930Z,94.27
2017-01-05T00:10:30.827Z,93.89
2017-01-05T00:11:11.407Z,94.08
2017-01-05T00:11:52.078Z,93.7
2017-01-05T00:12:32.633Z,93.89
2017-01-05T00:13:13.235Z,93.99
2017-01-05T00:13:53.841Z,93.99
2017-01-05T00:14:34.557Z,94.37
2017-01-05T00:15:16.204Z,94.65
2017-01-05T00:15:56.896Z,94.08
2017-01-05T00:16:37.550Z,94.37
2017-01-05T00:17:18.203Z,94.27
2017-01-05T00:17:58.909Z,94.18
2017-01-05T00:18:39.575Z,94.37
2017-01-05T00:19:20.183Z,94.37
2017-01-05T00:20:00.824Z,94.18
2017-01-05T00:20:41.488Z,94.37
2017-01-05T00:21:22.135Z,94.46
2017-01-05T00:22:02.799Z,94.08
2017-01-05T00:22:43.424Z,94.27
2017-01-05T00:23:24.091Z,94.27
2017-01-05T00:24:04.728Z,94.08
2017-01-05T00:24:45.548Z,94.08
2017-01-05T00:26:33.653Z,94.37
2017-01-05T00:27:14.220Z,94.65
2017-01-05T00:27:54.907Z,94.37
2017-01-05T00:28:36.527Z,94.18
2017-01-05T00:29:17.104Z,94.37
2017-01-05T00:29:57.676Z,94.37
2017-01-05T00:30:38.336Z,94.27
2017-01-05T00:31:19.020Z,94.37
2017-01-05T00:31:59.616Z,94.27
2017-01-05T00:32:40.182Z,94.18
2017-01-05T00:33:20.915Z,94.56
2017-01-05T00:34:01.609Z,94.46
2017-01-05T00:34:42.415Z,93.99
2017-01-05T00:35:23.165Z,93.99
2017-01-05T00:36:03.923Z,93.89
2017-01-05T00:36:44.673Z,93.89
2017-01-05T00:37:25.430Z,93.99
2017-01-05T00:38:06.202Z,94.37
2017-01-05T00:38:46.949Z,94.37
2017-01-05T00:39:27.701Z,94.65
2017-01-05T00:40:08.417Z,94.37
2017-01-05T00:40:49.136Z,94.08
2017-01-05T00:41:29.910Z,94.27
2017-01-05T00:42:10.624Z,94.37
2017-01-05T00:42:51.389Z,93.89
2017-01-05T00:43:32.743Z,94.46
2017-01-05T00:44:13.537Z,94.08
2017-01-05T00:44:54.255Z,94.46
2017-01-05T00:45:34.880Z,94.46
2017-01-05T00:46:15.561Z,94.46
2017-01-05T00:46:56.319Z,94.37
2017-01-05T00:47:36.889Z,94.08
2017-01-05T00:48:17.635Z,94.65
2017-01-05T00:48:58.405Z,94.18
2017-01-05T00:49:39.138Z,94.27
2017-01-05T00:50:19.899Z,94.27
2017-01-05T00:51:00.646Z,94.27
2017-01-05T00:51:41.390Z,94.27
2017-01-05T00:52:22.165Z,94.46
2017-01-05T00:53:02.927Z,94.37
2017-01-05T00:53:43.676Z,94.84
2017-01-05T00:54:24.259Z,94.56
2017-01-05T00:55:04.985Z,94.37
2017-01-05T00:55:45.695Z,94.08
2017-01-05T00:56:26.376Z,94.18
2017-01-05T00:57:06.929Z,94.37
2017-01-05T00:57:47.894Z,94.56
2017-01-05T00:58:28.579Z,94.74
2017-01-05T00:59:09.301Z,94.74
2017-01-05T00:59:50.052Z,94.18
2017-01-05T01:00:30.805Z,94.56
2017-01-05T01:01:11.573Z,94.93
2017-01-05T01:01:52.319Z,93.89
2017-01-05T01:02:33.108Z,95.03
2017-01-05T01:03:13.848Z,94.37
2017-01-05T01:03:54.588Z,94.08
2017-01-05T01:04:35.352Z,94.56
2017-01-05T01:05:17.132Z,94.74
2017-01-05T01:05:57.833Z,94.56
2017-01-05T01:06:38.530Z,94.46
2017-01-05T01:07:19.075Z,95.21
2017-01-05T01:07:59.870Z,95.31
2017-01-05T01:08:40.548Z,95.26
2017-01-05T01:09:21.151Z,95.4
2017-01-05T01:10:01.804Z,95.17
2017-01-05T01:10:42.461Z,95.36
2017-01-05T01:11:23.112Z,95.17
2017-01-05T01:12:03.752Z,95.17
2017-01-05T01:12:44.407Z,96.02
2017-01-05T01:13:25.075Z,96.02
2017-01-05T01:14:05.721Z,95.73
2017-01-05T01:14:46.325Z,95.83
2017-01-05T01:15:26.995Z,95.83
2017-01-05T01:16:07.634Z,95.64
2017-01-05T01:16:48.236Z,95.64
2017-01-05T01:17:28.813Z,95.73
2017-01-05T01:18:09.435Z,95.73
2017-01-05T01:18:50.027Z,95.92
2017-01-05T01:19:30.643Z,95.64
2017-01-05T01:20:11.280Z,95.73
2017-01-05T01:20:51.933Z,95.64
2017-01-05T01:21:32.590Z,95.83
2017-01-05T01:22:13.236Z,95.92
2017-01-05T01:22:53.894Z,95.83
2017-01-05T01:23:34.544Z,95.83
2017-01-05T01:24:15.203Z,95.36
2017-01-05T01:24:55.849Z,96.21
2017-01-05T01:25:36.513Z,95.73
2017-01-05T01:26:17.167Z,95.83
2017-01-05T01:26:57.855Z,95.83
2017-01-05T01:27:39.525Z,96.11
2017-01-05T01:28:20.219Z,95.83
2017-01-05T01:29:00.831Z,95.73
2017-01-05T01:29:41.398Z,96.11
2017-01-05T01:30:22.064Z,95.45
2017-01-05T01:31:02.737Z,95.17
2017-01-05T01:31:43.346Z,95.64
2017-01-05T01:32:24.055Z,95.26
2017-01-05T01:33:04.785Z,95.17
2017-01-05T01:33:45.536Z,95.64
2017-01-05T01:34:26.202Z,95.64
2017-01-05T01:35:06.877Z,94.98
2017-01-05T01:35:47.689Z,95.07
2017-01-05T01:36:28.248Z,94.79
2017-01-05T01:37:08.895Z,94.98
2017-01-05T01:37:49.586Z,95.26
2017-01-05T01:38:30.288Z,94.89
2017-01-05T01:39:10.840Z,95.45
2017-01-05T01:39:51.559Z,95.45
2017-01-05T01:40:32.258Z,95.26
2017-01-05T01:41:12.927Z,95.36
2017-01-05T01:41:53.667Z,95.45
2017-01-05T01:42:34.349Z,95.64
2017-01-05T01:43:15.073Z,95.26
2017-01-05T01:43:55.739Z,95.17
2017-01-05T01:44:36.372Z,95.17
2017-01-05T01:45:17.041Z,95.45
2017-01-05T01:45:57.694Z,95.45
2017-01-05T01:46:38.337Z,95.92
2017-01-05T01:47:18.991Z,95.73
2017-01-05T01:47:59.674Z,96.02
2017-01-05T01:48:41.336Z,95.73
2017-01-05T01:49:23.047Z,95.83
2017-01-05T01:50:03.728Z,95.73
2017-01-05T01:50:44.289Z,95.73
2017-01-05T01:51:24.946Z,95.92
2017-01-05T01:52:05.584Z,95.92
2017-01-05T01:52:46.139Z,96.02
2017-01-05T01:53:26.812Z,95.83
2017-01-05T01:54:07.457Z,96.02
2017-01-05T01:54:48.025Z,95.92
2017-01-05T01:55:28.701Z,96.02
2017-01-05T01:56:09.407Z,95.92
2017-01-05T01:56:49.964Z,95.64
2017-01-05T01:57:30.621Z,95.54
2017-01-05T01:58:11.258Z,95.54
2017-01-05T01:58:52.350Z,95.54
2017-01-05T01:59:32.996Z,96.02
2017-01-05T02:00:13.677Z,95.83
2017-01-05T02:00:54.379Z,95.83
2017-01-05T02:01:34.927Z,95.64
2017-01-05T02:02:15.607Z,95.64
2017-01-05T02:02:56.306Z,95.92
2017-01-05T02:03:36.990Z,95.83
2017-01-05T02:05:35.624Z,95.92
2017-01-05T02:06:16.333Z,95.83
2017-01-05T02:06:56.976Z,94.98
2017-01-05T02:07:37.639Z,95.26
2017-01-05T02:08:18.304Z,95.45
2017-01-05T02:08:58.944Z,95.45
2017-01-05T02:09:39.593Z,95.26
2017-01-05T02:10:20.249Z,95.45
2017-01-05T02:11:01.005Z,95.07
2017-01-05T02:11:41.705Z,95.17
2017-01-05T02:12:22.406Z,95.26
2017-01-05T02:13:03.067Z,95.45
2017-01-05T02:13:43.722Z,95.45
2017-01-05T02:14:24.381Z,95.07
2017-01-05T02:15:04.935Z,95.17
2017-01-05T02:15:45.589Z,94.51
2017-01-05T02:16:26.227Z,94.41
2017-01-05T02:17:06.792Z,95.17
2017-01-05T02:17:47.472Z,95.17
2017-01-05T02:18:28.188Z,95.26
2017-01-05T02:19:08.750Z,95.17
2017-01-05T02:19:49.568Z,95.07
2017-01-05T02:20:30.250Z,95.07
2017-01-05T02:21:10.796Z,95.17
2017-01-05T02:21:51.476Z,94.98
2017-01-05T02:22:32.104Z,94.6
2017-01-05T02:23:12.662Z,95.45
2017-01-05T02:23:53.356Z,94.7
2017-01-05T02:24:34.058Z,94.6
2017-01-05T02:25:14.631Z,94.79
2017-01-05T02:25:55.334Z,94.41
2017-01-05T02:26:36.020Z,94.51
2017-01-05T02:27:17.505Z,94.79
2017-01-05T02:27:58.164Z,94.6
2017-01-05T02:28:38.899Z,94.51
2017-01-05T02:29:19.452Z,94.7
2017-01-05T02:30:00.112Z,94.6
2017-01-05T02:30:40.755Z,94.98
2017-01-05T02:31:21.309Z,94.79
2017-01-05T02:32:02.042Z,94.32
2017-01-05T02:32:42.713Z,94.22
2017-01-05T02:33:24.238Z,94.6
2017-01-05T02:34:04.970Z,93.94
2017-01-05T02:34:45.724Z,94.79
2017-01-05T02:35:26.285Z,94.13
2017-01-05T02:36:07.021Z,94.79
2017-01-05T02:36:47.712Z,94.51
2017-01-05T02:37:28.423Z,94.79
2017-01-05T02:38:09.181Z,94.41
2017-01-05T02:38:49.860Z,94.41
2017-01-05T02:39:30.540Z,94.6
2017-01-05T02:40:11.105Z,94.41
2017-01-05T02:40:52.822Z,94.79
2017-01-05T02:41:33.458Z,94.79
2017-01-05T02:42:14.009Z,94.41
2017-01-05T02:42:54.686Z,94.13
2017-01-05T02:43:35.419Z,94.51
2017-01-05T02:44:15.966Z,94.41
2017-01-05T02:44:56.695Z,94.51
2017-01-05T02:45:37.440Z,94.32
2017-01-05T02:46:18.133Z,94.22
2017-01-05T02:46:58.684Z,94.22
2017-01-05T02:47:39.337Z,94.51
2017-01-05T02:48:20.051Z,94.13
2017-01-05T02:49:00.739Z,94.41
2017-01-05T02:49:41.407Z,94.51
2017-01-05T02:50:22.076Z,94.41
2017-01-05T02:51:02.771Z,94.41
2017-01-05T02:51:43.452Z,94.51
2017-01-05T02:52:24.125Z,94.41
2017-01-05T02:53:05.398Z,94.13
2017-01-05T02:53:46.908Z,94.41
2017-01-05T02:54:27.612Z,94.51
2017-01-05T02:55:08.203Z,94.51
2017-01-05T02:55:48.925Z,94.6
2017-01-05T02:56:29.651Z,94.79
2017-01-05T02:57:10.318Z,94.89
2017-01-05T02:57:50.870Z,94.98
2017-01-05T02:58:31.709Z,94.51
2017-01-05T02:59:12.327Z,94.79
2017-01-05T02:59:53.027Z,94.41
2017-01-05T03:00:33.570Z,94.98
2017-01-05T03:01:14.903Z,94.22
2017-01-05T03:01:55.580Z,94.79
2017-01-05T03:02:36.166Z,94.74
2017-01-05T03:03:17.500Z,94.6
2017-01-05T03:03:58.196Z,94.51
2017-01-05T03:04:38.906Z,94.7
2017-01-05T03:05:19.586Z,94.6
2017-01-05T03:06:00.154Z,94.6
2017-01-05T03:06:40.809Z,94.79
2017-01-05T03:07:22.092Z,94.51
2017-01-05T03:08:02.811Z,94.6
2017-01-05T03:08:43.362Z,94.51
2017-01-05T03:09:24.047Z,94.6
2017-01-05T03:10:05.771Z,94.79
2017-01-05T03:10:46.458Z,94.51
2017-01-05T03:11:26.972Z,94.13
2017-01-05T03:12:08.404Z,94.6
2017-01-05T03:12:49.072Z,94.74
2017-01-05T03:13:30.714Z,94.6
2017-01-05T03:14:11.288Z,94.56
2017-01-05T03:14:52.053Z,94.56
2017-01-05T03:15:32.759Z,94.46
2017-01-05T03:16:13.333Z,94.74
2017-01-05T03:16:53.983Z,94.79
2017-01-05T03:17:34.727Z,94.27
2017-01-05T03:18:15.288Z,94.18
2017-01-05T03:18:55.944Z,94.46
2017-01-05T03:19:36.578Z,94.84
2017-01-05T03:20:17.210Z,94.37
2017-01-05T03:20:57.884Z,94.18
2017-01-05T03:21:38.585Z,94.08
2017-01-05T03:22:19.293Z,94.65
2017-01-05T03:22:59.865Z,94.65
2017-01-05T03:23:40.611Z,94.37
2017-01-05T03:24:21.902Z,94.27
2017-01-05T03:25:02.620Z,94.27
2017-01-05T03:25:43.184Z,94.37
2017-01-05T03:26:23.842Z,94.37
2017-01-05T03:27:04.536Z,94.27
2017-01-05T03:27:45.227Z,94.18
2017-01-05T03:28:25.787Z,94.37
2017-01-05T03:29:06.463Z,94.74
2017-01-05T03:29:47.159Z,94.84
2017-01-05T03:30:27.846Z,94.84
2017-01-05T03:31:08.420Z,94.84
2017-01-05T03:31:49.170Z,94.56
2017-01-05T03:32:29.767Z,94.37
2017-01-05T03:33:10.466Z,94.74
2017-01-05T03:33:51.021Z,94.74
2017-01-05T03:34:31.773Z,95.03
2017-01-05T03:35:12.473Z,94.65
2017-01-05T03:35:53.278Z,94.74
2017-01-05T03:36:33.929Z,94.93
2017-01-05T03:37:14.610Z,94.56
2017-01-05T03:37:55.343Z,94.46
2017-01-05T03:38:35.991Z,94.84
2017-01-05T03:39:16.648Z,94.56
2017-01-05T03:39:57.301Z,94.46
2017-01-05T03:40:37.957Z,94.46
2017-01-05T03:41:18.607Z,94.46
2017-01-05T03:41:59.294Z,94.74
2017-01-05T03:42:40.018Z,94.56
2017-01-05T03:43:20.650Z,94.65
2017-01-05T03:44:01.315Z,95.21
2017-01-05T03:44:41.958Z,94.93
2017-01-05T03:45:23.411Z,95.31
2017-01-05T03:46:03.974Z,95.03
2017-01-05T03:46:44.757Z,95.03
2017-01-05T03:47:30.114Z,94.84
2017-01-05T03:48:10.681Z,95.03
2017-01-05T03:48:51.411Z,94.93
2017-01-05T03:49:32.149Z,95.21
2017-01-05T03:50:12.870Z,95.4
2017-01-05T03:50:53.599Z,95.5
2017-01-05T03:51:35.266Z,95.4
2017-01-05T03:52:15.904Z,95.4
2017-01-05T03:52:57.581Z,95.12
2017-01-05T03:53:42.968Z,95.21
2017-01-05T03:54:23.700Z,95.21
2017-01-05T03:55:05.481Z,95.21
2017-01-05T03:55:47.210Z,95.12
2017-01-05T03:56:29.956Z,95.21
2017-01-05T03:57:10.518Z,95.4
2017-01-05T03:57:51.207Z,95.4
2017-01-05T03:58:32.504Z,95.4
2017-01-05T03:59:13.257Z,95.4
2017-01-05T03:59:53.954Z,95.03
2017-01-05T04:00:34.490Z,95.59
2017-01-05T04:01:16.605Z,95.31
2017-01-05T04:01:57.545Z,95.31
2017-01-05T04:02:39.146Z,95.36
2017-01-05T04:03:19.870Z,95.26
2017-01-05T04:04:01.544Z,95.12
2017-01-05T04:04:44.331Z,95.64
2017-01-05T04:05:25.022Z,95.4
2017-01-05T04:06:05.753Z,95.07
2017-01-05T04:06:47.452Z,94.93
2017-01-05T04:07:28.199Z,95.17
2017-01-05T04:08:08.952Z,95.07
2017-01-05T04:08:49.625Z,95.07
2017-01-05T04:09:30.384Z,94.6
2017-01-05T04:10:12.042Z,94.6
2017-01-05T04:10:59.556Z,94.89
2017-01-05T04:11:41.230Z,94.51
2017-01-05T04:12:21.917Z,94.6
2017-01-05T04:13:07.503Z,94.79
2017-01-05T04:13:48.907Z,94.18
2017-01-05T04:14:34.513Z,94.89
2017-01-05T04:15:15.257Z,94.93
2017-01-05T04:16:02.462Z,94.74
2017-01-05T04:16:43.143Z,94.37
2017-01-05T04:17:23.790Z,94.37
2017-01-05T04:18:05.484Z,94.37
2017-01-05T04:18:46.142Z,94.18
2017-01-05T04:19:27.817Z,94.56
2017-01-05T04:20:08.479Z,94.46
2017-01-05T04:20:49.127Z,94.46
2017-01-05T04:21:29.760Z,94.37
2017-01-05T04:22:10.418Z,94.46
2017-01-05T04:22:51.067Z,94.46
2017-01-05T04:23:31.734Z,94.37
2017-01-05T04:24:12.377Z,94.18
2017-01-05T04:24:53.906Z,94.08
2017-01-05T04:25:35.536Z,94.37
2017-01-05T04:26:16.188Z,94.37
2017-01-05T04:26:56.861Z,93.99
2017-01-05T04:27:37.497Z,93.89
2017-01-05T04:28:18.138Z,94.08
2017-01-05T04:28:58.815Z,93.89
2017-01-05T04:29:40.332Z,94.37
2017-01-05T04:30:20.961Z,94.08
2017-01-05T04:31:01.551Z,94.08
2017-01-05T04:31:42.128Z,94.18
2017-01-05T04:32:22.784Z,94.18
2017-01-05T04:33:03.468Z,94.08
2017-01-05T04:33:44.061Z,94.18
2017-01-05T04:34:24.637Z,94.18
2017-01-05T04:35:05.393Z,94.18
2017-01-05T04:35:46.154Z,94.27
2017-01-05T04:36:26.795Z,94.27
2017-01-05T04:37:07.384Z,94.18
2017-01-05T04:37:49.028Z,93.89
2017-01-05T04:38:29.692Z,94.08
2017-01-05T04:39:10.320Z,93.99
2017-01-05T04:39:51.101Z,94.27
2017-01-05T04:40:32.688Z,93.89
2017-01-05T04:41:14.412Z,93.42
2017-01-05T04:41:54.990Z,94.37
2017-01-05T04:42:35.624Z,94.18
2017-01-05T04:43:17.358Z,94.37
2017-01-05T04:43:58.982Z,93.89
2017-01-05T04:44:39.546Z,93.89
2017-01-05T04:45:20.204Z,94.08
2017-01-05T04:46:00.995Z,93.89
2017-01-05T04:46:41.684Z,93.99
2017-01-05T04:47:22.249Z,94.27
2017-01-05T04:48:02.913Z,93.42
2017-01-05T04:48:43.491Z,93.42
2017-01-05T04:49:24.090Z,93.32
2017-01-05T04:50:04.696Z,93.51
2017-01-05T04:50:45.330Z,93.32
2017-01-05T04:51:26.011Z,93.7
2017-01-05T04:52:06.604Z,93.61
2017-01-05T04:52:47.166Z,93.61
2017-01-05T04:53:27.816Z,93.61
2017-01-05T04:54:08.409Z,93.51
2017-01-05T04:54:49.008Z,93.32
2017-01-05T04:55:29.655Z,93.42
2017-01-05T04:56:11.019Z,93.61
2017-01-05T04:56:51.642Z,93.61
2017-01-05T04:57:32.235Z,93.7
2017-01-05T04:58:12.807Z,93.61
2017-01-05T04:58:53.463Z,93.7
2017-01-05T04:59:34.143Z,93.13
2017-01-05T05:00:14.743Z,93.32
2017-01-05T05:00:55.308Z,93.04
2017-01-05T05:01:35.959Z,93.13
2017-01-05T05:02:16.652Z,93.32
2017-01-05T05:02:57.353Z,93.13
2017-01-05T05:03:37.942Z,93.42
2017-01-05T05:04:18.589Z,92.94
2017-01-05T05:04:59.284Z,92.85
2017-01-05T05:05:39.917Z,92.85
2017-01-05T05:06:20.578Z,92.76
2017-01-05T05:07:01.231Z,93.04
2017-01-05T05:07:41.883Z,92.76
2017-01-05T05:08:22.557Z,93.04
2017-01-05T05:09:03.216Z,92.85
2017-01-05T05:09:43.842Z,92.85
2017-01-05T05:10:24.484Z,92.66
2017-01-05T05:11:05.147Z,92.66
2017-01-05T05:11:45.790Z,92.66
2017-01-05T05:12:26.453Z,92.76
2017-01-05T05:13:07.107Z,92.76
2017-01-05T05:13:47.760Z,92.57
2017-01-05T05:14:28.414Z,92.38
2017-01-05T05:15:09.022Z,92.47
2017-01-05T05:15:50.129Z,92.66
2017-01-05T05:16:30.743Z,92.57
2017-01-05T05:17:11.434Z,92.47
2017-01-05T05:17:52.039Z,92.66
2017-01-05T05:18:32.603Z,92.47
2017-01-05T05:19:13.247Z,92.1
2017-01-05T05:19:53.840Z,92.85
2017-01-05T05:20:34.455Z,92.1
2017-01-05T05:21:15.130Z,92.19
2017-01-05T05:21:55.780Z,92
2017-01-05T05:22:36.481Z,92.29
2017-01-05T05:23:17.170Z,92.29
2017-01-05T05:23:57.885Z,92.19
2017-01-05T05:24:38.643Z,92.47
2017-01-05T05:25:19.355Z,91.91
2017-01-05T05:25:59.988Z,91.82
2017-01-05T05:26:40.641Z,91.63
2017-01-05T05:27:21.828Z,91.82
2017-01-05T05:28:02.465Z,91.72
2017-01-05T05:28:43.081Z,91.91
2017-01-05T05:29:24.519Z,92.1
2017-01-05T05:30:05.098Z,91.91
2017-01-05T05:30:45.721Z,91.34
2017-01-05T05:31:26.315Z,91.34
2017-01-05T05:32:06.891Z,91.53
2017-01-05T05:32:47.539Z,91.53
2017-01-05T05:33:28.137Z,91.44
2017-01-05T05:34:08.731Z,91.34
2017-01-05T05:34:49.314Z,91.53
2017-01-05T05:35:31.989Z,91.53
2017-01-05T05:36:12.660Z,91.15
2017-01-05T05:36:53.289Z,91.25
2017-01-05T05:37:33.953Z,91.25
2017-01-05T05:38:14.690Z,90.96
2017-01-05T05:38:55.365Z,90.77
2017-01-05T05:39:36.015Z,90.87
2017-01-05T05:40:16.664Z,90.68
2017-01-05T05:40:57.296Z,91.34
2017-01-05T05:41:38.850Z,91.15
2017-01-05T05:42:19.547Z,91.15
2017-01-05T05:43:01.199Z,90.68
2017-01-05T05:43:41.776Z,90.96
2017-01-05T05:44:22.428Z,90.87
2017-01-05T05:45:03.076Z,90.59
2017-01-05T05:45:43.624Z,90.77
2017-01-05T05:46:24.280Z,90.49
2017-01-05T05:47:04.920Z,90.49
2017-01-05T05:47:45.490Z,90.77
2017-01-05T05:48:28.197Z,90.3
2017-01-05T05:49:08.823Z,90.49
2017-01-05T05:49:49.389Z,90.49
2017-01-05T05:50:30.089Z,90.77
2017-01-05T05:51:10.693Z,90.21
2017-01-05T05:51:51.347Z,90.49
2017-01-05T05:52:32.007Z,90.49
2017-01-05T05:53:12.654Z,90.77
2017-01-05T05:53:53.314Z,90.21
2017-01-05T05:54:33.964Z,90.4
2017-01-05T05:55:14.613Z,90.49
2017-01-05T05:55:55.270Z,90.77
2017-01-05T05:56:35.936Z,90.59
2017-01-05T05:57:16.581Z,90.11
2017-01-05T05:57:57.229Z,90.3
2017-01-05T05:58:37.890Z,90.49
2017-01-05T05:59:19.544Z,90.49
2017-01-05T06:00:00.211Z,90.49
2017-01-05T06:00:41.035Z,90.87
2017-01-05T06:01:21.706Z,90.49
2017-01-05T06:02:02.391Z,89.83
2017-01-05T06:02:43.049Z,89.73
2017-01-05T06:03:23.719Z,90.11
2017-01-05T06:04:04.317Z,90.11
2017-01-05T06:04:44.879Z,90.11
2017-01-05T06:05:25.540Z,90.11
2017-01-05T06:06:07.196Z,90.02
2017-01-05T06:06:47.768Z,90.3
2017-01-05T06:07:28.423Z,90.11
2017-01-05T06:08:09.015Z,90.02
2017-01-05T06:08:49.588Z,90.21
2017-01-05T06:09:30.294Z,89.83
2017-01-05T06:10:10.977Z,89.92
2017-01-05T06:10:51.550Z,89.92
2017-01-05T06:11:32.296Z,90.11
2017-01-05T06:12:13.076Z,90.11
2017-01-05T06:12:54.416Z,90.02
2017-01-05T06:13:34.969Z,89.54
2017-01-05T06:14:15.733Z,89.36
2017-01-05T06:14:56.402Z,89.36
2017-01-05T06:15:37.109Z,89.73
2017-01-05T06:16:17.706Z,89.45
2017-01-05T06:16:58.433Z,89.45
2017-01-05T06:17:39.141Z,89.54
2017-01-05T06:18:19.832Z,89.83
2017-01-05T06:19:00.420Z,89.83
2017-01-05T06:19:41.156Z,89.26
2017-01-05T06:20:21.826Z,89.45
2017-01-05T06:21:02.536Z,89.45
2017-01-05T06:21:43.083Z,89.36
2017-01-05T06:22:23.824Z,89.36
2017-01-05T06:23:04.559Z,89.64
2017-01-05T06:23:45.251Z,89.26
2017-01-05T06:24:25.840Z,89.64
2017-01-05T06:25:07.573Z,89.45
2017-01-05T06:25:48.288Z,89.54
2017-01-05T06:26:28.987Z,89.64
2017-01-05T06:27:09.555Z,89.45
2017-01-05T06:27:50.334Z,89.45
2017-01-05T06:28:31.096Z,89.54
2017-01-05T06:29:11.810Z,89.17
2017-01-05T06:29:52.373Z,89.54
2017-01-05T06:30:33.071Z,89.54
2017-01-05T06:31:13.784Z,89.54
2017-01-05T06:31:54.568Z,89.54
2017-01-05T06:32:35.303Z,89.59
2017-01-05T06:33:16.043Z,89.59
2017-01-05T06:33:56.829Z,89.59
2017-01-05T06:34:37.560Z,89.4
2017-01-05T06:35:18.321Z,89.31
2017-01-05T06:35:59.012Z,89.36
2017-01-05T06:36:39.629Z,89.12
2017-01-05T06:37:20.185Z,89.31
2017-01-05T06:38:00.913Z,89.31
2017-01-05T06:38:41.638Z,89.31
2017-01-05T06:39:22.310Z,89.4
2017-01-05T06:40:02.860Z,89.22
2017-01-05T06:40:43.566Z,89.4
2017-01-05T06:41:24.321Z,89.4
2017-01-05T06:42:04.948Z,89.22
2017-01-05T06:42:45.691Z,89.22
2017-01-05T06:43:26.500Z,89.4
2017-01-05T06:44:07.219Z,89.22
2017-01-05T06:44:48.066Z,89.5
2017-01-05T06:45:29.633Z,89.22
2017-01-05T06:46:10.388Z,89.4
2017-01-05T06:46:50.969Z,89.31
2017-01-05T06:47:31.692Z,89.4
2017-01-05T06:48:12.448Z,89.31
2017-01-05T06:48:53.019Z,89.31
2017-01-05T06:49:33.799Z,89.31
2017-01-05T06:50:14.529Z,89.4
2017-01-05T06:50:55.218Z,89.22
2017-01-05T06:51:35.925Z,89.31
2017-01-05T06:52:16.690Z,89.4
2017-01-05T06:52:57.451Z,89.31
2017-01-05T06:53:38.192Z,89.31
2017-01-05T06:54:18.856Z,89.5
2017-01-05T06:54:59.620Z,89.31
2017-01-05T06:55:40.363Z,89.4
2017-01-05T06:56:21.064Z,89.22
2017-01-05T06:57:01.749Z,89.59
2017-01-05T06:57:42.314Z,90.07
2017-01-05T06:58:23.086Z,89.88
2017-01-05T06:59:03.865Z,89.97
2017-01-05T06:59:44.580Z,90.26
2017-01-05T07:00:25.146Z,90.26
2017-01-05T07:01:05.878Z,89.88
2017-01-05T07:01:46.580Z,90.16
2017-01-05T07:02:27.274Z,90.07
2017-01-05T07:03:07.830Z,89.88
2017-01-05T07:03:48.597Z,90.45
2017-01-05T07:04:29.311Z,90.16
2017-01-05T07:05:09.996Z,90.64
2017-01-05T07:05:50.765Z,90.16
2017-01-05T07:06:31.520Z,90.45
2017-01-05T07:07:12.260Z,90.54
2017-01-05T07:07:54.052Z,90.54
2017-01-05T07:08:34.707Z,90.64
2017-01-05T07:09:15.464Z,90.54
2017-01-05T07:09:56.208Z,90.92
2017-01-05T07:10:36.779Z,90.73
2017-01-05T07:11:18.543Z,90.64
2017-01-05T07:11:59.359Z,90.16
2017-01-05T07:12:40.053Z,90.54
2017-01-05T07:13:20.628Z,89.88
2017-01-05T07:14:01.372Z,90.26
2017-01-05T07:14:42.175Z,89.97
2017-01-05T07:15:22.866Z,90.26
2017-01-05T07:16:03.621Z,89.88
2017-01-05T07:16:44.363Z,90.26
2017-01-05T07:17:25.130Z,90.07
2017-01-05T07:18:05.781Z,90.45
2017-01-05T07:18:46.550Z,90.45
2017-01-05T07:19:27.304Z,90.35
2017-01-05T07:20:08.039Z,90.35
2017-01-05T07:20:48.629Z,90.45
2017-01-05T07:21:29.263Z,90.54
2017-01-05T07:22:09.973Z,90.73
2017-01-05T07:22:50.667Z,90.82
2017-01-05T07:23:31.234Z,90.64
2017-01-05T07:24:11.989Z,90.73
2017-01-05T07:24:52.660Z,90.45
2017-01-05T07:25:33.377Z,90.45
2017-01-05T07:26:13.992Z,90.54
2017-01-05T07:26:54.692Z,90.64
2017-01-05T07:27:35.914Z,90.64
2017-01-05T07:28:16.610Z,90.82
2017-01-05T07:28:57.184Z,91.01
2017-01-05T07:29:37.946Z,91.01
2017-01-05T07:30:18.635Z,90.82
2017-01-05T07:30:59.330Z,90.92
2017-01-05T07:31:40.092Z,90.82
2017-01-05T07:32:20.846Z,90.92
2017-01-05T07:33:02.639Z,90.82
2017-01-05T07:33:43.580Z,91.3
2017-01-05T07:34:24.360Z,91.11
2017-01-05T07:35:05.077Z,91.11
2017-01-05T07:35:48.528Z,90.64
2017-01-05T07:36:30.322Z,90.82
2017-01-05T07:37:10.887Z,90.92
2017-01-05T07:37:51.617Z,91.01
2017-01-05T07:38:32.476Z,90.92
2017-01-05T07:39:13.202Z,90.82
2017-01-05T07:39:53.765Z,91.01
2017-01-05T07:40:34.665Z,91.11
2017-01-05T07:41:15.425Z,91.39
2017-01-05T07:41:56.131Z,91.2
2017-01-05T07:42:36.700Z,91.2
2017-01-05T07:43:17.428Z,91.01
2017-01-05T07:43:58.134Z,91.58
2017-01-05T07:44:38.829Z,91.49
2017-01-05T07:45:19.412Z,91.3
2017-01-05T07:46:00.168Z,91.58
2017-01-05T07:46:41.056Z,91.39
2017-01-05T07:47:21.781Z,91.58
2017-01-05T07:48:02.541Z,91.49
2017-01-05T07:48:43.284Z,91.49
2017-01-05T07:49:25.103Z,91.49
2017-01-05T07:50:05.913Z,91.39
2017-01-05T07:50:46.673Z,91.49
2017-01-05T07:51:27.407Z,91.58
2017-01-05T07:52:07.976Z,91.01
2017-01-05T07:52:48.730Z,91.2
2017-01-05T07:53:29.471Z,91.67
2017-01-05T07:54:10.037Z,91.96
2017-01-05T07:54:50.804Z,91.58
2017-01-05T07:55:31.529Z,91.67
2017-01-05T07:56:12.077Z,91.86
2017-01-05T07:56:52.853Z,91.86
2017-01-05T07:57:33.648Z,91.58
2017-01-05T07:58:14.339Z,91.58
2017-01-05T07:58:54.920Z,91.67
2017-01-05T07:59:35.780Z,91.86
2017-01-05T08:00:16.564Z,91.67
2017-01-05T08:00:57.262Z,91.86
2017-01-05T08:01:37.838Z,91.86
2017-01-05T08:02:18.584Z,91.39
2017-01-05T08:03:00.304Z,92.33
2017-01-05T08:03:40.994Z,92.05
2017-01-05T08:04:21.558Z,92.24
2017-01-05T08:05:02.331Z,92.14
2017-01-05T08:05:43.120Z,92.14
2017-01-05T08:06:24.524Z,92.24
2017-01-05T08:07:05.298Z,92.14
2017-01-05T08:07:46.060Z,92.05
2017-01-05T08:08:26.833Z,92.14
2017-01-05T08:09:07.570Z,92.14
2017-01-05T08:09:48.342Z,91.96
2017-01-05T08:10:29.077Z,92.14
2017-01-05T08:11:09.816Z,92.14
2017-01-05T08:11:50.402Z,92.14
2017-01-05T08:12:31.149Z,92.05
2017-01-05T08:13:11.883Z,92.05
2017-01-05T08:13:52.475Z,92.24
2017-01-05T08:14:33.225Z,92.14
2017-01-05T08:15:13.847Z,91.96
2017-01-05T08:15:54.404Z,91.77
2017-01-05T08:16:35.145Z,91.96
2017-01-05T08:17:15.897Z,92.14
2017-01-05T08:17:56.463Z,91.96
2017-01-05T08:18:37.119Z,92.14
2017-01-05T08:19:17.766Z,91.96
2017-01-05T08:19:58.326Z,91.86
2017-01-05T08:20:39.077Z,91.96
2017-01-05T08:21:19.780Z,91.86
2017-01-05T08:22:00.587Z,91.96
2017-01-05T08:22:41.301Z,92.24
2017-01-05T08:23:22.043Z,92.14
2017-01-05T08:24:02.780Z,91.96
2017-01-05T08:24:43.491Z,92.43
2017-01-05T08:25:24.043Z,92.33
2017-01-05T08:26:04.682Z,92.05
2017-01-05T08:26:45.430Z,91.96
2017-01-05T08:27:26.109Z,91.96
2017-01-05T08:28:06.684Z,92.05
2017-01-05T08:28:47.441Z,91.86
2017-01-05T08:29:28.227Z,91.96
2017-01-05T08:30:08.926Z,92.43
2017-01-05T08:30:49.608Z,92.43
2017-01-05T08:31:30.267Z,92.24
2017-01-05T08:32:12.027Z,91.96
2017-01-05T08:32:52.664Z,92.43
2017-01-05T08:33:33.349Z,92.14
2017-01-05T08:34:13.982Z,91.86
2017-01-05T08:34:54.900Z,91.86
2017-01-05T08:35:35.544Z,92.43
2017-01-05T08:36:16.199Z,91.86
2017-01-05T08:36:56.976Z,92.43
2017-01-05T08:37:37.558Z,92.14
2017-01-05T08:38:18.202Z,91.86
2017-01-05T08:38:59.832Z,91.96
2017-01-05T08:39:40.413Z,91.86
2017-01-05T08:40:20.978Z,92.14
2017-01-05T08:41:03.563Z,91.96
2017-01-05T08:41:45.204Z,91.96
2017-01-05T08:42:25.902Z,92.33
2017-01-05T08:43:06.500Z,92.05
2017-01-05T08:43:47.117Z,92.14
2017-01-05T08:44:27.719Z,92.43
2017-01-05T08:45:08.308Z,92.43
2017-01-05T08:45:48.885Z,91.39
2017-01-05T08:46:29.532Z,92.33
2017-01-05T08:47:10.212Z,91.77
2017-01-05T08:47:51.832Z,91.77
2017-01-05T08:48:32.416Z,91.82
2017-01-05T08:49:13.073Z,91.58